Silva, North Dakota
Current Conditions -  °F | °C
As of 11:55 PM on Tuesday 21 Oct 2014 (Local Time) from KRUG Reporting Station
Clear Clear  
Wind Chill: 63°   Ceiling: Unl
Heat Index: 63°   Visibility: 10mi
Dew Point: 45°   Wind: 20mph
Humidity: 52%   Direction: 160°SSE
Pressure: 29.65"   Gusts: 29mph
Location:  48.2119°N, 99.9965°W
Report Text: KRUG 220455Z AUTO 16017G25KT 10SM CLR 17/07 A2965 RMK AO2
Loading
Personal Weather Stations






























Interactive Weather Map
Tropical Storm Tracking
New forecast layout! Learn more

10-Day Weather Forecast

Advertisements
Track Severe Weather on mobile